Terminal Aerodrome Forecast
Issued by NWS Green Bay, WI

Home | Current Version | Previous Version | Graphics & Text | Print | Product List | Glossary On
Versions: 1 2 3 4 5 6 7 8 9 10 11 12 13 14 15 16 17 18 19 20 21 22 23 24 25 26 27 28 29 30 31 32 33 34 35 36 37 38 39 40 41 42 43 44 45 46 47 48
000
FTUS43 KGRB 252320
TAFGRB
TAF
KGRB 252320Z 2600/2624 19010KT P6SM VCSH SCT025 BKN050
      TEMPO 2600/2603 6SM -SHRA BKN025
     FM260300 26011G17KT P6SM BKN040
     FM261500 26017G27KT P6SM BKN050=

USA.gov is the U.S. government's official web portal to all federal, state and local government web resources and services.